Time;durP1;ratioP1;P1;durP2;ratioP2;P2;SDS_P1;SDS_P2;PMS_P1;PMS_P2;Temp;Humidity;BMP_temperature;BMP_pressure;BME280_temperature;BME280_humidity;BME280_pressure;Samples;Min_cycle;Max_cycle;Signal;HPM_P1;HPM_P2
2022/04/24 00:01:39;;;;;;;15.87;8.53;;;7.20;99.90;;;;;;5054394;28;20185;-68
2022/04/24 00:04:05;;;;;;;20.93;9.57;;;7.20;99.90;;;;;;5057948;28;20947;-68
2022/04/24 00:06:34;;;;;;;16.27;8.90;;;7.30;99.90;;;;;;5053933;28;20524;-68
2022/04/24 00:09:00;;;;;;;20.10;8.70;;;7.30;99.90;;;;;;5052534;28;20188;-68
2022/04/24 00:11:26;;;;;;;20.03;8.80;;;7.30;99.90;;;;;;5047452;28;20428;-68
2022/04/24 00:13:51;;;;;;;20.10;9.40;;;7.30;99.90;;;;;;5052423;28;20189;-68
2022/04/24 00:16:17;;;;;;;18.70;10.47;;;7.40;99.90;;;;;;5049232;28;20276;-69
2022/04/24 00:18:43;;;;;;;19.90;10.03;;;7.50;99.90;;;;;;5046855;28;20240;-68
2022/04/24 00:21:09;;;;;;;17.20;9.07;;;7.50;99.90;;;;;;5049531;28;20185;-69
2022/04/24 00:23:35;;;;;;;17.47;9.60;;;7.50;99.90;;;;;;5048405;28;20594;-68
2022/04/24 00:26:00;;;;;;;20.93;8.83;;;7.50;99.90;;;;;;5049570;28;20323;-69
2022/04/24 00:28:27;;;;;;;17.17;9.57;;;7.50;99.90;;;;;;5051017;28;20531;-68
2022/04/24 00:30:53;;;;;;;18.60;9.70;;;7.50;99.90;;;;;;5047632;28;20193;-68
2022/04/24 00:33:19;;;;;;;24.50;9.97;;;7.40;99.90;;;;;;5047685;28;20482;-68
2022/04/24 00:35:45;;;;;;;16.17;9.50;;;7.40;99.90;;;;;;5053375;28;20424;-68
2022/04/24 00:38:11;;;;;;;26.77;10.10;;;7.40;99.90;;;;;;5051039;28;20215;-69
2022/04/24 00:40:36;;;;;;;16.33;9.30;;;7.40;99.90;;;;;;5055279;28;20420;-68
2022/04/24 00:43:02;;;;;;;16.27;8.80;;;7.40;99.90;;;;;;5052914;28;20276;-68
2022/04/24 00:45:28;;;;;;;17.40;9.27;;;7.30;99.90;;;;;;5051329;28;20240;-69
2022/04/24 00:47:54;;;;;;;21.17;9.73;;;7.30;99.90;;;;;;5046865;28;20645;-69
2022/04/24 00:50:19;;;;;;;17.80;8.77;;;7.30;99.90;;;;;;5046398;28;20196;-68
2022/04/24 00:52:47;;;;;;;21.53;9.90;;;7.30;99.90;;;;;;5051683;28;20194;-68
2022/04/24 00:55:12;;;;;;;19.43;9.83;;;7.40;99.90;;;;;;5052958;28;20360;-69
2022/04/24 00:57:41;;;;;;;19.47;10.10;;;7.40;99.90;;;;;;5057221;28;20561;-68
2022/04/24 01:00:08;;;;;;;16.77;8.20;;;7.40;99.90;;;;;;5052204;28;20185;-69
2022/04/24 01:02:34;;;;;;;23.30;9.43;;;7.50;99.90;;;;;;5051897;28;20528;-69
2022/04/24 01:05:00;;;;;;;16.27;8.70;;;7.50;99.90;;;;;;5054275;28;20992;-68
2022/04/24 01:07:26;;;;;;;22.77;10.50;;;7.60;99.90;;;;;;5051588;28;20442;-70
2022/04/24 01:09:51;;;;;;;17.90;9.33;;;7.50;99.90;;;;;;5050380;28;20428;-69
2022/04/24 01:12:17;;;;;;;21.30;9.90;;;7.60;99.90;;;;;;5052036;28;20693;-69
2022/04/24 01:14:42;;;;;;;20.80;9.27;;;7.60;99.90;;;;;;5053982;28;20282;-69
2022/04/24 01:17:08;;;;;;;17.57;9.77;;;7.60;99.90;;;;;;5050281;28;20201;-69
2022/04/24 01:19:34;;;;;;;21.40;9.03;;;7.70;99.90;;;;;;5052068;28;20189;-68
2022/04/24 01:22:00;;;;;;;18.00;10.03;;;7.70;99.90;;;;;;5053987;28;20312;-68
2022/04/24 01:24:28;;;;;;;21.97;10.17;;;7.70;99.90;;;;;;5053901;28;20431;-68
2022/04/24 01:26:54;;;;;;;31.10;11.37;;;7.80;99.90;;;;;;5050610;28;20217;-68
2022/04/24 01:29:20;;;;;;;25.10;10.50;;;7.80;99.90;;;;;;5054809;28;20470;-69
2022/04/24 01:31:49;;;;;;;16.90;10.70;;;7.80;99.90;;;;;;5056778;28;20197;-68
2022/04/24 01:34:16;;;;;;;20.50;11.10;;;7.80;99.90;;;;;;5053246;28;20434;-68
2022/04/24 01:36:42;;;;;;;24.73;11.80;;;7.90;99.90;;;;;;5060530;28;20491;-68
2022/04/24 01:39:08;;;;;;;19.97;10.23;;;7.90;99.90;;;;;;5056455;28;20457;-68
2022/04/24 01:41:35;;;;;;;17.80;9.43;;;7.90;99.90;;;;;;5052386;28;20189;-68
2022/04/24 01:44:01;;;;;;;21.00;10.83;;;7.90;99.90;;;;;;5052899;28;20184;-68
2022/04/24 01:46:27;;;;;;;23.50;11.03;;;7.90;99.90;;;;;;5058328;28;20431;-68
2022/04/24 01:48:53;;;;;;;23.30;11.77;;;8.00;99.90;;;;;;5049518;28;20939;-68
2022/04/24 01:51:19;;;;;;;23.93;9.73;;;8.00;99.90;;;;;;5056135;28;20213;-68
2022/04/24 01:53:45;;;;;;;26.60;11.87;;;8.00;99.90;;;;;;5056496;28;20420;-68
2022/04/24 01:56:12;;;;;;;20.10;11.03;;;8.10;99.90;;;;;;5050414;28;20240;-68
2022/04/24 01:58:39;;;;;;;24.87;11.10;;;8.20;99.90;;;;;;5050694;28;20507;-68
2022/04/24 02:01:06;;;;;;;23.63;12.07;;;8.20;99.90;;;;;;5050701;28;20463;-68
2022/04/24 02:03:35;;;;;;;25.57;10.03;;;8.10;99.90;;;;;;5060754;28;21010;-68
2022/04/24 02:06:02;;;;;;;17.83;9.50;;;8.20;99.90;;;;;;5050753;28;20428;-68
2022/04/24 02:08:30;;;;;;;32.90;12.10;;;8.20;99.90;;;;;;5052498;28;20447;-68
2022/04/24 02:10:56;;;;;;;21.87;9.57;;;8.20;99.90;;;;;;5051867;28;20539;-69
2022/04/24 02:13:22;;;;;;;22.37;10.60;;;8.10;99.90;;;;;;5054093;28;20545;-68
2022/04/24 02:15:49;;;;;;;26.60;11.63;;;8.20;99.90;;;;;;5052211;28;20247;-68
2022/04/24 02:18:15;;;;;;;20.50;10.83;;;8.20;99.90;;;;;;5055579;28;20205;-68
2022/04/24 02:20:40;;;;;;;20.50;11.70;;;8.20;99.90;;;;;;5053728;28;20486;-68
2022/04/24 02:23:06;;;;;;;29.07;12.13;;;8.20;99.90;;;;;;5048359;28;20288;-68
2022/04/24 02:25:32;;;;;;;26.40;12.27;;;8.10;99.90;;;;;;5052049;28;20186;-68
2022/04/24 02:27:58;;;;;;;26.43;12.47;;;8.20;99.90;;;;;;5057803;28;20280;-68
2022/04/24 02:30:27;;;;;;;22.63;11.10;;;8.20;99.90;;;;;;5043100;28;21172;-68
2022/04/24 02:32:54;;;;;;;31.27;13.03;;;8.20;99.90;;;;;;5053731;28;20423;-68
2022/04/24 02:35:20;;;;;;;27.80;12.70;;;8.10;99.90;;;;;;5052348;28;20420;-68
2022/04/24 02:37:46;;;;;;;22.80;12.80;;;8.10;99.90;;;;;;5057484;28;21113;-68
2022/04/24 02:40:11;;;;;;;39.50;13.77;;;8.10;99.90;;;;;;5049329;28;20251;-68
2022/04/24 02:42:38;;;;;;;29.87;12.47;;;8.10;99.90;;;;;;5061791;28;20193;-68
2022/04/24 02:45:07;;;;;;;26.87;12.47;;;8.10;99.90;;;;;;5050174;28;20189;-68
2022/04/24 02:47:33;;;;;;;26.83;13.23;;;8.00;99.90;;;;;;5049022;28;20439;-70
2022/04/24 02:49:59;;;;;;;25.07;11.70;;;8.00;99.90;;;;;;5048238;28;20432;-70
2022/04/24 02:52:25;;;;;;;35.93;14.20;;;8.00;99.90;;;;;;5049564;28;20633;-71
2022/04/24 02:54:50;;;;;;;27.47;12.80;;;7.80;99.90;;;;;;5049820;28;20189;-70
2022/04/24 02:57:16;;;;;;;27.40;13.00;;;7.80;99.90;;;;;;5051068;28;20253;-70
2022/04/24 02:59:42;;;;;;;36.23;14.93;;;7.80;99.90;;;;;;5049852;28;20207;-69
2022/04/24 03:02:09;;;;;;;26.67;13.03;;;7.80;99.90;;;;;;5054363;28;20335;-69
2022/04/24 03:04:35;;;;;;;33.30;14.30;;;7.80;99.90;;;;;;5056679;28;20431;-68
2022/04/24 03:07:01;;;;;;;32.20;13.90;;;7.70;99.90;;;;;;5051055;28;20428;-68
2022/04/24 03:09:26;;;;;;;28.27;13.97;;;7.70;99.90;;;;;;5059410;28;20182;-68
2022/04/24 03:11:52;;;;;;;33.80;12.80;;;7.80;99.90;;;;;;5050481;28;20197;-69
2022/04/24 03:14:17;;;;;;;29.03;15.13;;;7.80;99.90;;;;;;5048612;28;20200;-68
2022/04/24 03:16:43;;;;;;;28.33;13.80;;;7.70;99.90;;;;;;5050912;28;20219;-68
2022/04/24 03:19:09;;;;;;;35.37;14.93;;;7.80;99.90;;;;;;5050835;28;20352;-68
2022/04/24 03:21:34;;;;;;;34.30;14.47;;;7.80;99.90;;;;;;5050986;28;20248;-68
2022/04/24 03:24:00;;;;;;;30.30;14.70;;;7.80;99.90;;;;;;5048501;28;20216;-69
2022/04/24 03:26:26;;;;;;;25.27;13.23;;;7.80;99.90;;;;;;5050520;28;20192;-68
2022/04/24 03:28:51;;;;;;;32.07;13.83;;;7.80;99.90;;;;;;5047789;28;20193;-68
2022/04/24 03:31:17;;;;;;;32.53;13.80;;;7.90;99.90;;;;;;5056549;28;20189;-69
2022/04/24 03:33:43;;;;;;;36.10;16.70;;;7.90;99.90;;;;;;5048015;28;20209;-69
2022/04/24 03:36:09;;;;;;;29.20;14.57;;;7.90;99.90;;;;;;5062226;28;20658;-69
2022/04/24 03:38:34;;;;;;;31.97;15.17;;;7.90;99.90;;;;;;5051414;28;20217;-69
2022/04/24 03:41:01;;;;;;;25.63;13.00;;;8.10;99.90;;;;;;5053446;28;20763;-69
2022/04/24 03:43:27;;;;;;;33.83;15.43;;;8.00;99.90;;;;;;5048458;28;20190;-69
2022/04/24 03:45:53;;;;;;;29.50;14.13;;;8.00;99.90;;;;;;5051703;28;20434;-68
2022/04/24 03:48:18;;;;;;;31.77;15.03;;;8.00;99.90;;;;;;5049411;28;20280;-69
2022/04/24 03:50:44;;;;;;;27.80;13.53;;;8.00;99.90;;;;;;5047366;28;20208;-69
2022/04/24 03:53:10;;;;;;;31.77;13.73;;;8.00;99.90;;;;;;5048056;28;20197;-69
2022/04/24 03:55:35;;;;;;;25.40;13.40;;;7.90;99.90;;;;;;5051169;28;20190;-69
2022/04/24 03:58:01;;;;;;;34.70;17.03;;;8.00;99.90;;;;;;5052718;28;20268;-69
2022/04/24 04:00:27;;;;;;;26.83;13.77;;;8.00;99.90;;;;;;5049406;28;20598;-69
2022/04/24 04:02:53;;;;;;;33.90;14.33;;;8.00;99.90;;;;;;5052187;28;20216;-69
2022/04/24 04:05:20;;;;;;;28.87;13.50;;;8.00;99.90;;;;;;5051668;28;20200;-69
2022/04/24 04:07:46;;;;;;;27.40;14.83;;;8.00;99.90;;;;;;5050813;28;20482;-69
2022/04/24 04:10:12;;;;;;;37.63;14.10;;;8.00;99.90;;;;;;5050587;28;20431;-70
2022/04/24 04:12:37;;;;;;;24.13;9.60;;;8.00;99.90;;;;;;5051542;28;20736;-70
2022/04/24 04:15:04;;;;;;;10.97;5.70;;;8.00;99.90;;;;;;5051076;28;20586;-70
2022/04/24 04:17:30;;;;;;;9.30;4.20;;;7.90;99.90;;;;;;5049821;28;20217;-69
2022/04/24 04:19:56;;;;;;;12.67;5.60;;;7.80;99.90;;;;;;5054264;28;20445;-69
2022/04/24 04:22:22;;;;;;;17.30;3.53;;;7.70;99.90;;;;;;5051845;28;20657;-69
2022/04/24 04:24:47;;;;;;;6.60;1.90;;;7.60;99.90;;;;;;5055998;28;20779;-68
2022/04/24 04:27:13;;;;;;;4.70;2.30;;;7.50;99.90;;;;;;5047995;28;20692;-68
2022/04/24 04:29:39;;;;;;;3.60;1.63;;;7.50;99.90;;;;;;5055823;28;20727;-68
2022/04/24 04:32:05;;;;;;;4.37;1.93;;;7.50;99.90;;;;;;5053217;28;20185;-68
2022/04/24 04:34:30;;;;;;;2.90;1.33;;;7.40;99.90;;;;;;5047508;28;20194;-68
2022/04/24 04:36:56;;;;;;;2.33;1.23;;;7.30;99.90;;;;;;5057818;28;20470;-68
2022/04/24 04:39:22;;;;;;;1.63;0.70;;;7.30;99.90;;;;;;5054281;28;20727;-68
2022/04/24 04:41:47;;;;;;;4.67;1.03;;;7.30;99.90;;;;;;5057662;28;20209;-68
2022/04/24 04:44:14;;;;;;;4.10;0.90;;;7.20;99.90;;;;;;5057684;28;20193;-68
2022/04/24 04:46:39;;;;;;;1.33;0.60;;;7.10;99.90;;;;;;5060797;28;20182;-68
2022/04/24 04:49:05;;;;;;;1.47;0.60;;;7.00;99.90;;;;;;5061513;28;20469;-68
2022/04/24 04:51:31;;;;;;;1.43;0.50;;;6.90;99.90;;;;;;5054502;28;20186;-68
2022/04/24 04:53:56;;;;;;;1.30;0.50;;;6.90;99.90;;;;;;5051890;28;20555;-68
2022/04/24 04:56:23;;;;;;;1.10;0.40;;;6.90;99.90;;;;;;5051414;28;20213;-68
2022/04/24 04:58:49;;;;;;;2.90;0.70;;;6.80;99.90;;;;;;5052925;28;20228;-68
2022/04/24 05:01:15;;;;;;;6.60;0.50;;;6.70;99.90;;;;;;5053489;28;20434;-68
2022/04/24 05:03:40;;;;;;;2.53;0.57;;;6.70;99.90;;;;;;5056027;28;20420;-68
2022/04/24 05:06:06;;;;;;;1.30;0.50;;;6.60;99.90;;;;;;5053766;28;20232;-68
2022/04/24 05:08:32;;;;;;;1.10;0.40;;;6.60;99.90;;;;;;5057407;28;20230;-69
2022/04/24 05:10:57;;;;;;;3.20;0.50;;;6.50;99.90;;;;;;5054769;28;20181;-69
2022/04/24 05:13:23;;;;;;;3.90;0.70;;;6.40;99.90;;;;;;5050826;28;21061;-69
2022/04/24 05:15:48;;;;;;;1.10;0.50;;;6.40;99.90;;;;;;5050812;28;20747;-69
2022/04/24 05:18:14;;;;;;;1.10;0.40;;;6.30;99.90;;;;;;5043364;28;20213;-69
2022/04/24 05:20:42;;;;;;;1.20;0.50;;;6.30;99.90;;;;;;5050257;28;20189;-69
2022/04/24 05:23:08;;;;;;;1.70;0.50;;;6.30;99.90;;;;;;5056192;28;20435;-69
2022/04/24 05:25:35;;;;;;;1.73;0.47;;;6.20;99.90;;;;;;5056822;28;20904;-69
2022/04/24 05:28:01;;;;;;;2.23;0.53;;;6.20;99.90;;;;;;5057074;28;20428;-70
2022/04/24 05:30:30;;;;;;;1.10;0.40;;;6.10;99.90;;;;;;5043551;28;20424;-69
2022/04/24 05:32:56;;;;;;;1.10;0.47;;;6.10;99.90;;;;;;5049946;28;20423;-69
2022/04/24 05:35:21;;;;;;;1.30;0.50;;;6.10;99.90;;;;;;5050312;28;20427;-69
2022/04/24 05:37:47;;;;;;;1.10;0.40;;;6.10;99.90;;;;;;5057723;28;20213;-69
2022/04/24 05:40:14;;;;;;;1.30;0.50;;;6.10;99.90;;;;;;5051594;28;20182;-69
2022/04/24 05:42:49;;;;;;;1.10;0.40;;;6.10;99.90;;;;;;5052206;28;20182;-69
2022/04/24 05:45:18;;;;;;;1.10;0.40;;;6.10;99.90;;;;;;5050224;28;20790;-69
2022/04/24 05:47:45;;;;;;;1.10;0.40;;;6.20;99.90;;;;;;5052286;28;20465;-69
2022/04/24 05:50:12;;;;;;;1.63;0.63;;;6.20;99.90;;;;;;5049054;28;20462;-69
2022/04/24 05:52:37;;;;;;;2.40;0.53;;;6.20;99.90;;;;;;5052929;28;20443;-69
2022/04/24 05:55:03;;;;;;;1.63;0.50;;;6.20;99.90;;;;;;5049928;28;20424;-69
2022/04/24 05:57:29;;;;;;;1.10;0.40;;;6.20;99.90;;;;;;5053416;28;20216;-69
2022/04/24 05:59:54;;;;;;;1.63;0.50;;;6.20;99.90;;;;;;5049896;28;20212;-69
2022/04/24 06:02:20;;;;;;;1.20;0.60;;;6.30;99.90;;;;;;5054536;28;20184;-69
2022/04/24 06:04:46;;;;;;;1.20;0.50;;;6.30;99.90;;;;;;5049721;28;20190;-69
2022/04/24 06:07:11;;;;;;;1.50;0.60;;;6.30;99.90;;;;;;5052909;28;20190;-68
2022/04/24 06:09:37;;;;;;;1.40;0.60;;;6.40;99.90;;;;;;5053724;28;20190;-69
2022/04/24 06:12:03;;;;;;;3.30;0.50;;;6.30;99.90;;;;;;5053275;28;20312;-69
2022/04/24 06:14:29;;;;;;;1.30;0.50;;;6.20;99.90;;;;;;5054503;28;20294;-68
2022/04/24 06:16:54;;;;;;;1.20;0.50;;;6.30;99.90;;;;;;5049463;28;20212;-69
2022/04/24 06:19:20;;;;;;;1.20;0.40;;;6.20;99.90;;;;;;5049143;28;20626;-69
2022/04/24 06:21:46;;;;;;;1.20;0.50;;;6.20;99.90;;;;;;5060233;28;20391;-69
2022/04/24 06:24:11;;;;;;;1.10;0.40;;;6.20;99.90;;;;;;5057228;28;20242;-69
2022/04/24 06:26:37;;;;;;;1.20;0.50;;;6.20;99.90;;;;;;5057501;28;20526;-69
2022/04/24 06:29:02;;;;;;;1.10;0.40;;;6.20;99.90;;;;;;5054966;28;20182;-69
2022/04/24 06:31:28;;;;;;;1.37;0.50;;;6.20;99.90;;;;;;5054611;28;20185;-69
2022/04/24 06:33:54;;;;;;;1.37;0.50;;;6.20;99.90;;;;;;5056344;28;20186;-68
2022/04/24 06:36:19;;;;;;;1.10;0.40;;;6.20;99.90;;;;;;5059896;28;20185;-69
2022/04/24 06:38:45;;;;;;;1.10;0.40;;;6.20;99.90;;;;;;5045971;28;20560;-69
2022/04/24 06:41:11;;;;;;;1.23;0.57;;;6.20;99.90;;;;;;5048977;28;20268;-69
2022/04/24 06:43:36;;;;;;;1.10;0.40;;;6.20;99.90;;;;;;5049841;28;20311;-69
2022/04/24 06:46:02;;;;;;;2.40;1.10;;;6.20;99.90;;;;;;5049687;28;20186;-69
2022/04/24 06:48:28;;;;;;;2.03;0.60;;;6.20;99.90;;;;;;5048974;28;20292;-68
2022/04/24 06:50:53;;;;;;;2.30;0.93;;;6.20;99.90;;;;;;5050800;28;20599;-69
2022/04/24 06:53:20;;;;;;;1.37;0.57;;;6.20;99.90;;;;;;5050327;28;20205;-69
2022/04/24 06:55:48;;;;;;;3.43;0.93;;;6.20;99.90;;;;;;5052436;28;20182;-68
2022/04/24 06:58:16;;;;;;;1.40;0.60;;;6.30;99.90;;;;;;5050713;28;20838;-69
2022/04/24 07:00:44;;;;;;;1.10;0.40;;;6.30;99.90;;;;;;5050442;28;20432;-69
2022/04/24 07:03:11;;;;;;;1.10;0.40;;;6.40;99.90;;;;;;5048301;28;20423;-69
2022/04/24 07:05:37;;;;;;;1.17;0.53;;;6.40;99.90;;;;;;5052510;28;20448;-69
2022/04/24 07:08:03;;;;;;;1.30;0.50;;;6.40;99.90;;;;;;5048750;28;21086;-69
2022/04/24 07:10:28;;;;;;;1.30;0.60;;;6.40;99.90;;;;;;5057423;28;20185;-69
2022/04/24 07:12:54;;;;;;;1.20;0.50;;;6.40;99.90;;;;;;5052823;28;20822;-69
2022/04/24 07:15:22;;;;;;;1.10;0.50;;;6.40;99.90;;;;;;5054808;28;20201;-68
2022/04/24 07:17:49;;;;;;;2.33;0.60;;;6.40;99.90;;;;;;5050587;28;20654;-68
2022/04/24 07:20:16;;;;;;;5.20;2.20;;;6.40;99.90;;;;;;5059001;28;20598;-68
2022/04/24 07:22:53;;;;;;;2.60;1.33;;;6.40;99.90;;;;;;5047432;28;20408;-69
2022/04/24 07:25:19;;;;;;;1.20;0.60;;;6.40;99.90;;;;;;5054785;28;20764;-68
2022/04/24 07:27:46;;;;;;;1.30;0.50;;;6.40;99.90;;;;;;5041858;28;20975;-68
2022/04/24 07:30:15;;;;;;;1.20;0.60;;;6.40;99.90;;;;;;5048080;28;20424;-69
2022/04/24 07:32:43;;;;;;;1.10;0.50;;;6.40;99.90;;;;;;5049422;28;20431;-68
2022/04/24 07:35:10;;;;;;;1.50;0.57;;;6.50;99.90;;;;;;5049712;28;20429;-69
2022/04/24 07:37:36;;;;;;;1.10;0.50;;;6.50;99.90;;;;;;5045328;28;20541;-68
2022/04/24 07:40:04;;;;;;;8.73;0.93;;;6.50;99.90;;;;;;5047760;28;20416;-69
2022/04/24 07:42:30;;;;;;;2.20;0.60;;;6.50;99.90;;;;;;5050134;28;20412;-69
2022/04/24 07:44:55;;;;;;;1.50;0.70;;;6.50;99.90;;;;;;5050360;28;20475;-69
2022/04/24 07:47:21;;;;;;;1.30;0.60;;;6.50;99.90;;;;;;5053640;28;20260;-69
2022/04/24 07:49:46;;;;;;;1.10;0.50;;;6.60;99.90;;;;;;5050207;28;20231;-68
2022/04/24 07:52:12;;;;;;;1.10;0.50;;;6.60;99.90;;;;;;5053026;28;20287;-69
2022/04/24 07:54:38;;;;;;;1.10;0.40;;;6.60;99.90;;;;;;5051409;28;20213;-69
2022/04/24 07:57:05;;;;;;;1.10;0.40;;;6.70;99.90;;;;;;5054580;28;20247;-69
2022/04/24 07:59:30;;;;;;;1.60;0.50;;;6.70;99.90;;;;;;5052030;28;20198;-69
2022/04/24 08:01:56;;;;;;;1.53;0.50;;;6.80;99.90;;;;;;5053498;28;20431;-69
2022/04/24 08:04:22;;;;;;;1.20;0.50;;;6.80;99.90;;;;;;5048507;28;20212;-69
2022/04/24 08:06:48;;;;;;;1.43;0.70;;;6.80;99.90;;;;;;5054654;28;20208;-68
2022/04/24 08:09:14;;;;;;;2.17;0.90;;;6.90;99.90;;;;;;5049104;28;20263;-69
2022/04/24 08:11:40;;;;;;;1.70;0.60;;;6.90;99.90;;;;;;5055480;28;20514;-69
2022/04/24 08:14:05;;;;;;;1.20;0.50;;;6.90;99.90;;;;;;5048247;28;20213;-69
2022/04/24 08:16:31;;;;;;;1.30;0.60;;;6.90;99.90;;;;;;5055566;28;20193;-69
2022/04/24 08:19:01;;;;;;;1.20;0.50;;;6.90;99.90;;;;;;5050065;28;20214;-70
2022/04/24 08:21:26;;;;;;;1.10;0.40;;;6.90;99.90;;;;;;5049827;28;20276;-69
2022/04/24 08:23:52;;;;;;;1.20;0.53;;;6.90;99.90;;;;;;5050894;28;20833;-69
2022/04/24 08:26:18;;;;;;;1.57;0.60;;;7.00;99.90;;;;;;5056375;28;20685;-69
2022/04/24 08:28:44;;;;;;;1.40;0.60;;;7.00;99.90;;;;;;5050706;28;20186;-69
2022/04/24 08:31:10;;;;;;;2.37;0.80;;;7.00;99.90;;;;;;5047954;28;20642;-69
2022/04/24 08:33:35;;;;;;;1.87;0.70;;;7.00;99.90;;;;;;5047746;28;20623;-69
2022/04/24 08:36:01;;;;;;;1.97;0.73;;;7.00;99.90;;;;;;5050614;28;20216;-69
2022/04/24 08:38:26;;;;;;;2.03;0.90;;;7.00;99.90;;;;;;5042716;28;20213;-69
2022/04/24 08:40:53;;;;;;;1.63;0.60;;;7.00;99.90;;;;;;5049005;28;21450;-69
2022/04/24 08:43:23;;;;;;;1.20;0.53;;;7.00;99.90;;;;;;5047350;28;20206;-69
2022/04/24 08:45:51;;;;;;;1.20;0.50;;;7.00;99.90;;;;;;5047321;28;21147;-69
2022/04/24 08:48:17;;;;;;;1.30;0.50;;;7.00;99.90;;;;;;5048717;28;20427;-69
2022/04/24 08:50:43;;;;;;;1.40;0.50;;;7.00;99.90;;;;;;5046270;28;20427;-69
2022/04/24 08:53:10;;;;;;;2.03;0.80;;;7.10;99.90;;;;;;5053275;28;20463;-69
2022/04/24 08:55:35;;;;;;;1.10;0.50;;;7.10;99.90;;;;;;5052196;28;20431;-70
2022/04/24 08:58:01;;;;;;;3.63;0.83;;;7.10;99.90;;;;;;5052718;28;20471;-69
2022/04/24 09:00:30;;;;;;;1.30;0.60;;;7.10;99.90;;;;;;5047082;28;20678;-69
2022/04/24 09:03:00;;;;;;;1.27;0.53;;;7.10;99.90;;;;;;5057631;28;20424;-69
2022/04/24 09:05:28;;;;;;;1.60;0.63;;;7.10;99.90;;;;;;5050771;28;20428;-69
2022/04/24 09:08:11;;;;;;;2.60;0.90;;;7.10;99.90;;;;;;5046220;28;20420;-69
2022/04/24 09:10:49;;;;;;;1.50;0.60;;;7.20;99.90;;;;;;5052946;28;20714;-68
2022/04/24 09:13:31;;;;;;;1.63;0.60;;;7.20;99.90;;;;;;5050000;28;20546;-69
2022/04/24 09:16:02;;;;;;;1.87;0.73;;;7.20;99.90;;;;;;5053120;28;20442;-68
2022/04/24 09:18:40;;;;;;;1.23;0.70;;;7.20;99.90;;;;;;5052904;28;20554;-69
2022/04/24 09:21:07;;;;;;;1.30;0.53;;;7.20;99.90;;;;;;5046634;28;20895;-69
2022/04/24 09:23:36;;;;;;;1.80;1.00;;;7.30;99.90;;;;;;5047398;28;20427;-69
2022/04/24 09:26:02;;;;;;;2.57;1.07;;;7.30;99.90;;;;;;5050653;28;20808;-69
2022/04/24 09:28:40;;;;;;;2.37;0.70;;;7.30;99.90;;;;;;5050443;28;20542;-69
2022/04/24 09:31:07;;;;;;;1.40;0.60;;;7.40;99.90;;;;;;5052238;28;20420;-69
2022/04/24 09:33:43;;;;;;;1.73;0.73;;;7.50;99.90;;;;;;5050243;28;20428;-69
2022/04/24 09:36:10;;;;;;;2.17;0.80;;;7.50;99.90;;;;;;5056916;28;20423;-69
2022/04/24 09:38:41;;;;;;;1.60;0.60;;;7.50;99.90;;;;;;5046222;28;20554;-70
2022/04/24 09:41:23;;;;;;;3.30;0.80;;;7.50;99.90;;;;;;5055241;28;21238;-69
2022/04/24 09:43:50;;;;;;;2.50;1.00;;;7.40;99.90;;;;;;5056645;28;20416;-69
2022/04/24 09:46:29;;;;;;;1.40;0.80;;;7.50;99.90;;;;;;5054828;28;20423;-69
2022/04/24 09:49:00;;;;;;;2.20;1.30;;;7.50;99.90;;;;;;5054281;28;20539;-69
2022/04/24 09:51:26;;;;;;;2.33;1.10;;;7.60;99.90;;;;;;5054430;28;20430;-70
2022/04/24 09:53:58;;;;;;;2.07;1.10;;;7.70;99.90;;;;;;5054546;28;20789;-70
2022/04/24 09:56:26;;;;;;;1.70;1.23;;;7.70;99.90;;;;;;5049846;28;20424;-70
2022/04/24 09:58:52;;;;;;;1.80;1.10;;;7.70;99.90;;;;;;5054191;28;20493;-70
2022/04/24 10:01:18;;;;;;;1.70;0.80;;;7.60;99.90;;;;;;5054223;28;20425;-67
2022/04/24 10:03:45;;;;;;;1.90;0.83;;;7.80;99.90;;;;;;5061707;28;20559;-67
2022/04/24 10:06:11;;;;;;;1.40;0.80;;;7.80;99.90;;;;;;5056132;28;20788;-68
2022/04/24 10:08:40;;;;;;;1.80;1.03;;;7.80;99.90;;;;;;5049207;28;20435;-68
2022/04/24 10:11:06;;;;;;;1.70;0.70;;;7.80;99.90;;;;;;5049537;28;20273;-68
2022/04/24 10:13:36;;;;;;;5.30;0.70;;;7.80;99.90;;;;;;5052618;28;20851;-67
2022/04/24 10:16:13;;;;;;;1.87;0.93;;;7.80;99.90;;;;;;5049852;28;20440;-68
2022/04/24 10:18:47;;;;;;;3.00;1.20;;;7.80;99.90;;;;;;5050017;28;20460;-68
2022/04/24 10:21:32;;;;;;;2.93;1.30;;;7.90;99.90;;;;;;5045000;28;20423;-67
2022/04/24 10:24:07;;;;;;;3.50;1.60;;;7.90;99.90;;;;;;5050511;28;21487;-68
2022/04/24 10:26:34;;;;;;;2.73;1.40;;;7.90;99.90;;;;;;5051288;28;20908;-68
2022/04/24 10:29:08;;;;;;;1.60;0.90;;;7.90;99.90;;;;;;5049274;28;20439;-68
2022/04/24 10:31:44;;;;;;;1.53;0.80;;;7.90;99.90;;;;;;5051075;28;20501;-68
2022/04/24 10:34:11;;;;;;;2.40;1.40;;;7.90;99.90;;;;;;5059284;28;20454;-68
2022/04/24 10:36:37;;;;;;;3.40;1.30;;;7.90;99.90;;;;;;5048932;28;20940;-68
2022/04/24 10:39:15;;;;;;;3.70;2.00;;;8.00;99.90;;;;;;5051759;28;20496;-68
2022/04/24 10:41:40;;;;;;;2.80;1.23;;;8.00;99.90;;;;;;5049204;28;20931;-68
2022/04/24 10:44:15;;;;;;;3.70;1.73;;;8.00;99.90;;;;;;5055742;28;20447;-68
2022/04/24 10:46:42;;;;;;;3.80;1.83;;;8.00;99.90;;;;;;5046956;28;20205;-67
2022/04/24 10:49:12;;;;;;;11.40;3.40;;;8.00;99.90;;;;;;5052673;28;20420;-68
2022/04/24 10:51:40;;;;;;;9.50;2.33;;;8.10;99.90;;;;;;5047196;28;20456;-67
2022/04/24 10:54:08;;;;;;;2.90;1.30;;;8.10;99.90;;;;;;5059071;28;20423;-68
2022/04/24 10:56:36;;;;;;;6.70;2.40;;;8.10;99.90;;;;;;5054338;28;20543;-67
2022/04/24 10:59:16;;;;;;;3.10;1.20;;;8.00;99.90;;;;;;5059602;28;21113;-68
2022/04/24 11:01:48;;;;;;;2.73;0.80;;;8.10;99.90;;;;;;5055061;28;20464;-68
2022/04/24 11:04:15;;;;;;;2.33;1.00;;;8.10;99.90;;;;;;5054763;28;20415;-68
2022/04/24 11:06:57;;;;;;;1.80;0.73;;;8.00;99.90;;;;;;5048587;28;20504;-69
2022/04/24 11:09:28;;;;;;;2.10;1.03;;;8.10;99.90;;;;;;5048442;28;20435;-68
2022/04/24 11:12:01;;;;;;;1.83;1.00;;;8.10;99.90;;;;;;5049478;28;20416;-68
2022/04/24 11:14:29;;;;;;;1.60;0.77;;;8.20;99.90;;;;;;5048975;28;20422;-68
2022/04/24 11:16:56;;;;;;;2.83;1.27;;;8.20;99.90;;;;;;5049674;28;20427;-68
2022/04/24 11:19:30;;;;;;;7.37;1.30;;;8.30;99.90;;;;;;5047933;28;20999;-68
2022/04/24 11:22:00;;;;;;;2.43;1.03;;;8.30;99.90;;;;;;5049465;28;21263;-68
2022/04/24 11:24:31;;;;;;;6.00;1.80;;;8.30;99.90;;;;;;5053638;28;20510;-68
2022/04/24 11:27:17;;;;;;;3.20;1.37;;;8.30;99.90;;;;;;5055628;28;20943;-68
2022/04/24 11:29:44;;;;;;;4.73;1.07;;;8.30;99.90;;;;;;5053584;28;20438;-68
2022/04/24 11:32:11;;;;;;;4.87;1.37;;;8.40;99.90;;;;;;5048534;28;20415;-68
2022/04/24 11:34:37;;;;;;;1.83;0.93;;;8.40;99.90;;;;;;5051976;28;20416;-68
2022/04/24 11:37:04;;;;;;;1.50;0.77;;;8.60;99.90;;;;;;5043500;28;20471;-68
2022/04/24 11:39:31;;;;;;;6.10;1.00;;;8.60;99.90;;;;;;5055409;28;20467;-68
2022/04/24 11:41:58;;;;;;;3.40;1.10;;;8.60;99.90;;;;;;5055158;28;20447;-68
2022/04/24 11:50:13;;;;;;;1.90;0.77;;;8.80;99.90;;;;;;5044001;28;20571;-68
2022/04/24 11:52:47;;;;;;;2.80;1.07;;;8.70;99.90;;;;;;5054139;28;20415;-68
2022/04/24 11:58:16;;;;;;;2.43;0.70;;;8.60;99.90;;;;;;5038297;28;20467;-68
2022/04/24 12:00:42;;;;;;;1.27;0.50;;;8.50;99.90;;;;;;5036904;28;20852;-68
2022/04/24 12:03:08;;;;;;;1.30;0.50;;;8.60;99.90;;;;;;5044348;28;20206;-68
2022/04/24 12:05:34;;;;;;;1.97;0.90;;;8.50;99.90;;;;;;5046890;28;20248;-68
2022/04/24 12:08:00;;;;;;;1.40;0.50;;;8.50;99.90;;;;;;5047426;28;20416;-68
2022/04/24 12:10:26;;;;;;;1.20;0.50;;;8.50;99.90;;;;;;5044831;28;20911;-68
2022/04/24 12:12:54;;;;;;;1.40;0.57;;;8.40;99.90;;;;;;5048881;28;20447;-68
2022/04/24 12:15:24;;;;;;;1.30;0.60;;;8.40;99.90;;;;;;5048194;28;20451;-68
2022/04/24 12:17:56;;;;;;;2.70;0.60;;;8.40;99.90;;;;;;5052410;28;20471;-68
2022/04/24 12:20:40;;;;;;;2.00;0.73;;;8.50;99.90;;;;;;5049697;28;20438;-68
2022/04/24 12:23:14;;;;;;;1.40;0.60;;;8.60;99.90;;;;;;5050233;28;20434;-68
2022/04/24 12:25:56;;;;;;;3.87;0.77;;;8.70;99.90;;;;;;5049438;28;20854;-68
2022/04/24 12:28:35;;;;;;;1.60;0.70;;;8.70;99.90;;;;;;5044310;28;20752;-69
2022/04/24 12:31:03;;;;;;;1.77;0.50;;;8.90;99.90;;;;;;5053119;28;20451;-68
2022/04/24 12:33:30;;;;;;;1.53;0.60;;;8.90;99.90;;;;;;5052406;28;20421;-68
2022/04/24 12:36:07;;;;;;;1.30;0.63;;;9.00;99.90;;;;;;5055455;28;20424;-67
2022/04/24 12:38:32;;;;;;;1.50;0.60;;;9.20;99.90;;;;;;5051475;28;20476;-68
2022/04/24 12:40:59;;;;;;;1.77;0.73;;;9.20;99.90;;;;;;5051413;28;20434;-68
2022/04/24 12:43:30;;;;;;;1.40;0.60;;;9.30;99.90;;;;;;5053059;28;20697;-67
2022/04/24 12:45:57;;;;;;;3.23;0.63;;;9.10;99.90;;;;;;5057459;28;20415;-68
2022/04/24 12:48:23;;;;;;;1.20;0.50;;;9.10;99.90;;;;;;5052802;28;20542;-67
2022/04/24 12:50:53;;;;;;;1.40;0.70;;;9.10;99.90;;;;;;5057188;28;20423;-67
2022/04/24 12:53:19;;;;;;;1.50;0.60;;;9.00;99.90;;;;;;5053721;28;20471;-69
2022/04/24 12:55:46;;;;;;;1.20;0.50;;;9.00;99.90;;;;;;5052579;28;20424;-67
2022/04/24 12:58:14;;;;;;;2.23;0.80;;;9.00;99.90;;;;;;5047351;28;21098;-68
2022/04/24 13:00:45;;;;;;;1.60;0.80;;;9.10;99.90;;;;;;5050617;28;20849;-68